createdAt,value
2018-12-17T00:00:08.425Z,26.45
2018-12-17T00:00:46.040Z,26.46
2018-12-17T00:01:23.151Z,26.47
2018-12-17T00:02:03.223Z,26.47
2018-12-17T00:02:41.348Z,26.49
2018-12-17T00:03:18.925Z,26.49
2018-12-17T00:03:59.698Z,26.50
2018-12-17T00:04:38.672Z,26.52
2018-12-17T00:05:16.906Z,26.52
2018-12-17T00:06:00.118Z,26.53
2018-12-17T00:06:37.342Z,26.53
2018-12-17T00:07:14.750Z,26.55
2018-12-17T00:07:57.390Z,26.57
2018-12-17T00:08:34.604Z,26.55
2018-12-17T00:09:12.345Z,26.57
2018-12-17T00:09:50.928Z,26.58
2018-12-17T00:10:29.090Z,26.59
2018-12-17T00:11:06.751Z,26.59
2018-12-17T00:11:44.327Z,26.60
2018-12-17T00:12:21.517Z,26.60
2018-12-17T00:12:58.820Z,26.60
2018-12-17T00:13:36.308Z,26.60
2018-12-17T00:14:13.600Z,26.61
2018-12-17T00:14:51.928Z,26.61
2018-12-17T00:15:32.284Z,26.61
2018-12-17T00:16:09.603Z,26.62
2018-12-17T00:16:46.988Z,26.63
2018-12-17T00:17:25.544Z,26.64
2018-12-17T00:18:03.162Z,26.66
2018-12-17T00:18:40.713Z,26.64
2018-12-17T00:19:21.906Z,26.65
2018-12-17T00:20:03.038Z,26.64
2018-12-17T00:20:41.363Z,26.63
2018-12-17T00:21:18.813Z,26.64
2018-12-17T00:21:56.500Z,26.66
2018-12-17T00:22:36.760Z,26.66
2018-12-17T00:23:14.250Z,26.66
2018-12-17T00:23:53.777Z,26.66
2018-12-17T00:24:31.444Z,26.67
2018-12-17T00:25:09.134Z,26.68
2018-12-17T00:25:50.499Z,26.69
2018-12-17T00:26:27.715Z,26.71
2018-12-17T00:27:05.396Z,26.71
2018-12-17T00:27:43.757Z,26.72
2018-12-17T00:28:21.940Z,26.73
2018-12-17T00:29:01.379Z,26.74
2018-12-17T00:29:46.807Z,26.75
2018-12-17T00:30:24.699Z,26.74
2018-12-17T00:31:02.214Z,26.75
2018-12-17T00:31:39.344Z,26.75
2018-12-17T00:32:17.687Z,26.76
2018-12-17T00:32:55.125Z,26.77
2018-12-17T00:33:35.125Z,26.79
2018-12-17T00:34:12.495Z,26.80
2018-12-17T00:34:49.773Z,26.80
2018-12-17T00:35:33.033Z,26.82
2018-12-17T00:36:11.237Z,26.83
2018-12-17T00:36:48.657Z,26.84
2018-12-17T00:37:27.255Z,26.85
2018-12-17T00:38:06.793Z,26.85
2018-12-17T00:38:44.344Z,26.86
2018-12-17T00:39:26.573Z,26.87
2018-12-17T00:40:04.751Z,26.88
2018-12-17T00:40:42.342Z,26.88
2018-12-17T00:41:22.387Z,26.90
2018-12-17T00:42:01.029Z,26.92
2018-12-17T00:42:40.356Z,26.94
2018-12-17T00:43:20.735Z,26.94
2018-12-17T00:44:00.055Z,26.96
2018-12-17T00:44:37.698Z,26.98
2018-12-17T00:45:15.296Z,26.97
2018-12-17T00:45:53.043Z,26.99
2018-12-17T00:46:30.323Z,27.01
2018-12-17T00:47:07.921Z,27.01
2018-12-17T00:47:45.547Z,27.01
2018-12-17T00:48:23.152Z,27.03
2018-12-17T00:49:00.439Z,27.02
2018-12-17T00:49:38.093Z,27.01
2018-12-17T00:50:17.355Z,27.02
2018-12-17T00:50:59.598Z,27.05
2018-12-17T00:51:37.812Z,27.04
2018-12-17T00:52:17.600Z,27.05
2018-12-17T00:52:56.608Z,27.07
2018-12-17T00:53:34.196Z,27.07
2018-12-17T00:54:11.575Z,27.08
2018-12-17T00:54:55.880Z,27.09
2018-12-17T00:55:37.563Z,27.11
2018-12-17T00:56:15.129Z,27.12
2018-12-17T00:56:53.079Z,27.12
2018-12-17T00:57:34.059Z,27.13
2018-12-17T00:58:15.227Z,27.13
2018-12-17T00:58:52.120Z,27.15
2018-12-17T00:59:29.615Z,27.17
2018-12-17T01:00:08.886Z,27.18
2018-12-17T01:00:46.577Z,27.19
2018-12-17T01:01:23.962Z,27.20
2018-12-17T01:02:01.555Z,27.20
2018-12-17T01:02:39.087Z,27.22
2018-12-17T01:03:21.344Z,27.24
2018-12-17T01:03:58.945Z,27.24
2018-12-17T01:04:36.707Z,27.19
2018-12-17T01:05:15.792Z,27.20
2018-12-17T01:05:53.246Z,27.21
2018-12-17T01:06:36.459Z,27.24
2018-12-17T01:07:19.808Z,27.24
2018-12-17T01:08:01.454Z,27.24
2018-12-17T01:08:40.712Z,27.26
2018-12-17T01:09:18.156Z,27.28
2018-12-17T01:09:59.826Z,27.28
2018-12-17T01:10:37.116Z,27.29
2018-12-17T01:11:14.562Z,27.31
2018-12-17T01:11:52.468Z,27.32
2018-12-17T01:12:29.840Z,27.32
2018-12-17T01:13:07.277Z,27.34
2018-12-17T01:13:44.890Z,27.36
2018-12-17T01:14:22.456Z,27.36
2018-12-17T01:14:59.873Z,27.38
2018-12-17T01:15:42.152Z,27.40
2018-12-17T01:16:19.524Z,27.39
2018-12-17T01:16:58.068Z,27.42
2018-12-17T01:17:40.748Z,27.44
2018-12-17T01:18:18.239Z,27.44
2018-12-17T01:18:55.941Z,27.46
2018-12-17T01:19:35.763Z,27.47
2018-12-17T01:23:18.710Z,27.49
2018-12-17T01:23:56.429Z,27.50
2018-12-17T01:24:35.184Z,27.50
2018-12-17T01:25:15.305Z,27.52
2018-12-17T01:25:52.797Z,27.53
2018-12-17T01:26:34.892Z,27.54
2018-12-17T01:27:12.115Z,27.53
2018-12-17T01:27:49.958Z,27.54
2018-12-17T01:28:28.543Z,27.56
2018-12-17T01:29:05.692Z,27.56
2018-12-17T01:29:43.313Z,27.58
2018-12-17T01:30:20.626Z,27.61
2018-12-17T01:30:58.129Z,27.62
2018-12-17T01:31:35.846Z,27.64
2018-12-17T01:32:13.255Z,27.66
2018-12-17T01:32:51.603Z,27.69
2018-12-17T01:33:30.237Z,27.71
2018-12-17T01:34:11.582Z,27.73
2018-12-17T01:34:49.357Z,27.75
2018-12-17T01:35:27.343Z,27.78
2018-12-17T01:36:05.709Z,27.80
2018-12-17T01:36:43.467Z,27.82
2018-12-17T01:37:22.819Z,27.84
2018-12-17T01:38:02.921Z,27.84
2018-12-17T01:38:41.021Z,27.85
2018-12-17T01:39:18.597Z,27.86
2018-12-17T01:40:00.877Z,27.88
2018-12-17T01:40:39.880Z,27.87
2018-12-17T01:41:17.479Z,27.88
2018-12-17T01:41:55.944Z,27.89
2018-12-17T01:42:37.065Z,27.91
2018-12-17T01:43:14.341Z,27.90
2018-12-17T01:43:52.144Z,27.91
2018-12-17T01:44:29.426Z,27.93
2018-12-17T01:45:10.906Z,27.94
2018-12-17T01:45:55.345Z,27.96
2018-12-17T01:46:35.925Z,27.98
2018-12-17T01:47:13.546Z,27.99
2018-12-17T01:47:50.992Z,28.01
2018-12-17T01:48:29.050Z,28.02
2018-12-17T01:49:06.752Z,28.04
2018-12-17T01:49:44.119Z,28.03
2018-12-17T01:50:21.646Z,28.03
2018-12-17T01:50:59.577Z,28.03
2018-12-17T01:51:37.046Z,28.03
2018-12-17T01:52:18.429Z,28.04
2018-12-17T01:52:56.291Z,28.04
2018-12-17T01:53:33.625Z,28.05
2018-12-17T01:54:14.399Z,28.08
2018-12-17T01:54:52.460Z,28.08
2018-12-17T01:55:29.876Z,28.09
2018-12-17T01:56:07.182Z,28.06
2018-12-17T01:56:44.311Z,28.08
2018-12-17T01:57:23.353Z,28.08
2018-12-17T01:58:07.920Z,28.03
2018-12-17T01:58:46.145Z,28.06
2018-12-17T01:59:23.451Z,28.07
2018-12-17T02:00:01.689Z,28.09
2018-12-17T02:00:39.923Z,28.08
2018-12-17T02:01:17.316Z,28.08
2018-12-17T02:01:57.588Z,28.09
2018-12-17T02:02:35.059Z,28.09
2018-12-17T02:03:12.449Z,28.12
2018-12-17T02:03:55.458Z,28.13
2018-12-17T02:04:33.007Z,28.13
2018-12-17T02:05:10.770Z,28.15
2018-12-17T02:05:49.502Z,28.15
2018-12-17T02:06:28.646Z,28.17
2018-12-17T02:07:06.975Z,28.17
2018-12-17T02:07:44.264Z,28.19
2018-12-17T02:08:21.655Z,28.18
2018-12-17T02:09:00.368Z,28.19
2018-12-17T02:09:37.709Z,28.21
2018-12-17T02:10:14.826Z,28.21
2018-12-17T02:10:54.549Z,28.17
2018-12-17T02:11:32.156Z,28.19
2018-12-17T02:12:09.800Z,28.20
2018-12-17T02:12:48.104Z,28.22
2018-12-17T02:13:30.081Z,28.18
2018-12-17T02:14:08.272Z,28.18
2018-12-17T02:14:46.200Z,28.20
2018-12-17T02:15:25.140Z,28.22
2018-12-17T02:16:02.749Z,28.20
2018-12-17T02:16:40.212Z,28.23
2018-12-17T02:17:20.593Z,28.25
2018-12-17T02:17:58.271Z,28.25
2018-12-17T02:18:37.690Z,28.27
2018-12-17T02:19:15.797Z,28.29
2018-12-17T02:19:56.992Z,28.30
2018-12-17T02:20:34.942Z,28.31
2018-12-17T02:21:12.974Z,28.34
2018-12-17T02:21:50.505Z,28.35
2018-12-17T02:22:28.172Z,28.36
2018-12-17T02:23:05.571Z,28.38
2018-12-17T02:23:43.000Z,28.40
2018-12-17T02:24:20.456Z,28.42
2018-12-17T02:24:58.167Z,28.42
2018-12-17T02:25:36.384Z,28.44
2018-12-17T02:26:13.794Z,28.45
2018-12-17T02:26:54.818Z,28.46
2018-12-17T02:27:33.365Z,28.47
2018-12-17T02:28:10.781Z,28.47
2018-12-17T02:28:51.630Z,28.49
2018-12-17T02:29:29.146Z,28.51
2018-12-17T02:30:07.830Z,28.51
2018-12-17T02:30:50.940Z,28.54
2018-12-17T02:31:28.414Z,28.56
2018-12-17T02:32:05.925Z,28.57
2018-12-17T02:32:43.173Z,28.58
2018-12-17T02:33:20.659Z,28.59
2018-12-17T02:34:02.273Z,28.59
2018-12-17T02:34:39.757Z,28.61
2018-12-17T02:35:17.462Z,28.63
2018-12-17T02:36:39.097Z,28.67
2018-12-17T02:37:20.458Z,28.68
2018-12-17T02:38:00.445Z,28.70
2018-12-17T02:38:39.976Z,28.71
2018-12-17T02:39:18.573Z,28.72
2018-12-17T02:39:57.666Z,28.74
2018-12-17T02:40:38.178Z,28.76
2018-12-17T02:41:16.931Z,28.77
2018-12-17T02:41:55.112Z,28.79
2018-12-17T02:42:33.542Z,28.81
2018-12-17T02:43:12.138Z,28.84
2018-12-17T02:43:49.966Z,28.86
2018-12-17T02:44:29.779Z,28.89
2018-12-17T02:45:07.266Z,28.92
2018-12-17T02:45:44.601Z,28.95
2018-12-17T02:46:26.901Z,28.96
2018-12-17T02:47:04.961Z,28.99
2018-12-17T02:47:48.606Z,29.02
2018-12-17T02:48:26.273Z,29.05
2018-12-17T02:49:07.371Z,29.04
2018-12-17T02:49:44.874Z,29.10
2018-12-17T02:50:22.293Z,29.13
2018-12-17T02:51:01.579Z,29.15
2018-12-17T02:51:39.662Z,29.18
2018-12-17T02:52:17.046Z,29.20
2018-12-17T02:52:54.563Z,29.24
2018-12-17T02:53:31.995Z,29.25
2018-12-17T02:54:09.532Z,29.28
2018-12-17T02:54:46.957Z,29.29
2018-12-17T02:55:24.594Z,29.28
2018-12-17T02:56:02.026Z,29.34
2018-12-17T02:56:39.314Z,29.35
2018-12-17T02:57:16.944Z,29.33
2018-12-17T02:57:54.406Z,29.37
2018-12-17T02:58:34.397Z,29.36
2018-12-17T02:59:12.803Z,29.40
2018-12-17T02:59:50.179Z,29.38
2018-12-17T03:00:27.840Z,29.44
2018-12-17T03:01:05.249Z,29.45
2018-12-17T03:01:42.968Z,29.47
2018-12-17T03:02:20.985Z,29.44
2018-12-17T03:03:03.777Z,29.46
2018-12-17T03:03:41.200Z,29.54
2018-12-17T03:04:18.604Z,29.52
2018-12-17T03:04:59.000Z,29.48
2018-12-17T03:05:36.645Z,29.55
2018-12-17T03:06:13.751Z,29.55
2018-12-17T03:06:55.160Z,29.56
2018-12-17T03:07:32.985Z,29.58
2018-12-17T03:08:10.411Z,29.55
2018-12-17T03:08:54.986Z,29.56
2018-12-17T03:09:33.142Z,29.57
2018-12-17T03:10:10.875Z,29.56
2018-12-17T03:10:49.190Z,29.57
2018-12-17T03:11:26.489Z,29.55
2018-12-17T03:12:04.390Z,29.61
2018-12-17T03:12:41.955Z,29.63
2018-12-17T03:13:19.412Z,29.63
2018-12-17T03:13:57.171Z,29.63
2018-12-17T03:14:34.577Z,29.63
2018-12-17T03:15:11.839Z,29.64
2018-12-17T03:15:49.465Z,29.64
2018-12-17T03:16:27.073Z,29.67
2018-12-17T03:17:04.077Z,29.67
2018-12-17T03:17:48.603Z,29.69
2018-12-17T03:18:31.373Z,29.69
2018-12-17T03:19:24.174Z,29.71
2018-12-17T03:20:10.225Z,29.75
2018-12-17T03:20:48.191Z,29.72
2018-12-17T03:21:25.714Z,29.77
2018-12-17T03:22:06.653Z,29.80
2018-12-17T03:22:43.995Z,29.75
2018-12-17T03:23:21.482Z,29.82
2018-12-17T03:24:01.493Z,29.83
2018-12-17T03:24:38.871Z,29.85
2018-12-17T03:25:16.241Z,29.85
2018-12-17T03:25:54.866Z,29.87
2018-12-17T03:26:32.163Z,29.89
2018-12-17T03:27:09.858Z,29.90
2018-12-17T03:27:47.694Z,29.92
2018-12-17T03:28:25.102Z,29.94
2018-12-17T03:29:02.545Z,29.94
2018-12-17T03:29:45.799Z,29.93
2018-12-17T03:30:23.129Z,29.95
2018-12-17T03:31:00.302Z,29.92
2018-12-17T03:31:39.914Z,29.97
2018-12-17T03:32:16.841Z,29.95
2018-12-17T03:32:54.518Z,30.00
2018-12-17T03:33:36.102Z,30.01
2018-12-17T03:34:14.538Z,30.02
2018-12-17T03:34:52.237Z,30.03
2018-12-17T03:35:33.629Z,30.02
2018-12-17T03:36:10.966Z,30.04
2018-12-17T03:36:48.490Z,30.03
2018-12-17T03:37:27.485Z,30.04
2018-12-17T03:38:05.135Z,30.05
2018-12-17T03:38:42.628Z,30.05
2018-12-17T03:39:19.867Z,30.06
2018-12-17T03:39:57.813Z,30.07
2018-12-17T03:40:35.558Z,30.08
2018-12-17T03:42:07.899Z,30.10
2018-12-17T03:42:45.257Z,30.11
2018-12-17T03:43:23.585Z,30.11
2018-12-17T03:44:01.730Z,30.13
2018-12-17T03:44:39.206Z,30.13
2018-12-17T03:45:16.859Z,30.13
2018-12-17T03:45:54.759Z,30.12
2018-12-17T03:46:32.099Z,30.14
2018-12-17T03:47:09.526Z,30.15
2018-12-17T03:47:50.170Z,30.14
2018-12-17T03:48:27.809Z,30.14
2018-12-17T03:49:05.305Z,30.15
2018-12-17T03:49:47.687Z,30.16
2018-12-17T03:50:24.827Z,30.08
2018-12-17T03:51:02.853Z,30.15
2018-12-17T03:51:47.974Z,30.16
2018-12-17T03:52:25.457Z,30.13
2018-12-17T03:53:03.769Z,30.16
2018-12-17T03:53:42.014Z,30.17
2018-12-17T03:54:20.982Z,30.09
2018-12-17T03:54:57.998Z,30.12
2018-12-17T03:55:35.221Z,30.11
2018-12-17T03:56:12.506Z,30.11
2018-12-17T03:56:49.864Z,30.09
2018-12-17T03:57:27.446Z,30.04
2018-12-17T03:58:05.956Z,29.99
2018-12-17T03:58:42.993Z,30.02
2018-12-17T03:59:20.283Z,29.97
2018-12-17T03:59:58.190Z,30.00
2018-12-17T04:00:35.818Z,30.00
2018-12-17T04:01:14.287Z,30.00
2018-12-17T04:01:51.959Z,29.99
2018-12-17T04:02:29.760Z,29.99
2018-12-17T04:03:08.418Z,30.00
2018-12-17T04:03:51.654Z,29.97
2018-12-17T04:04:29.171Z,30.00
2018-12-17T04:05:06.682Z,29.95
2018-12-17T04:05:48.284Z,30.01
2018-12-17T04:06:27.699Z,29.95
2018-12-17T04:07:05.208Z,30.04
2018-12-17T04:07:51.067Z,30.00
2018-12-17T04:08:34.112Z,30.04
2018-12-17T04:09:11.542Z,30.00
2018-12-17T04:09:49.300Z,30.03
2018-12-17T04:10:28.181Z,30.01
2018-12-17T04:11:05.924Z,30.05
2018-12-17T04:11:43.376Z,30.10
2018-12-17T04:12:21.136Z,30.10
2018-12-17T04:13:03.948Z,30.11
2018-12-17T04:13:41.668Z,30.12
2018-12-17T04:14:19.145Z,30.13
2018-12-17T04:14:56.921Z,30.12
2018-12-17T04:15:35.774Z,30.13
2018-12-17T04:16:12.925Z,30.13
2018-12-17T04:16:50.277Z,30.13
2018-12-17T04:17:28.726Z,30.13
2018-12-17T04:18:07.446Z,30.15
2018-12-17T04:18:46.060Z,30.14
2018-12-17T04:19:23.566Z,30.11
2018-12-17T04:20:02.727Z,30.12
2018-12-17T04:20:40.182Z,30.12
2018-12-17T04:21:17.386Z,30.11
2018-12-17T04:21:54.870Z,30.09
2018-12-17T04:22:32.630Z,30.10
2018-12-17T04:23:09.621Z,30.10
2018-12-17T04:23:47.268Z,30.11
2018-12-17T04:24:25.593Z,30.10
2018-12-17T04:25:02.925Z,30.12
2018-12-17T04:25:40.318Z,30.13
2018-12-17T04:26:17.614Z,30.12
2018-12-17T04:26:55.298Z,30.09
2018-12-17T04:27:32.968Z,30.13
2018-12-17T04:28:14.819Z,30.13
2018-12-17T04:28:52.419Z,30.11
2018-12-17T04:29:29.717Z,30.11
2018-12-17T04:30:11.679Z,30.10
2018-12-17T04:30:49.214Z,30.10
2018-12-17T04:31:27.630Z,30.10
2018-12-17T04:32:05.361Z,30.10
2018-12-17T04:32:42.910Z,30.09
2018-12-17T04:33:20.305Z,30.10
2018-12-17T04:33:57.432Z,30.12
2018-12-17T04:34:34.962Z,30.10
2018-12-17T04:35:12.362Z,30.11
2018-12-17T04:35:51.394Z,30.12
2018-12-17T04:36:29.326Z,30.11
2018-12-17T04:37:06.881Z,30.08
2018-12-17T04:37:50.229Z,30.12
2018-12-17T04:38:28.049Z,30.10
2018-12-17T04:39:06.955Z,30.06
2018-12-17T04:39:45.606Z,30.09
2018-12-17T04:40:24.960Z,30.08
2018-12-17T04:41:02.655Z,30.09
2018-12-17T04:41:40.401Z,30.08
2018-12-17T04:42:18.030Z,30.09
2018-12-17T04:42:56.029Z,30.10
2018-12-17T04:43:36.359Z,30.11
2018-12-17T04:44:14.395Z,30.11
2018-12-17T04:44:52.162Z,30.12
2018-12-17T04:45:33.049Z,30.12
2018-12-17T04:46:11.190Z,30.11
2018-12-17T04:46:48.587Z,30.10
2018-12-17T04:47:27.081Z,30.10
2018-12-17T04:48:04.300Z,30.08
2018-12-17T04:48:43.031Z,30.04
2018-12-17T04:49:20.579Z,30.07
2018-12-17T04:49:58.373Z,30.08
2018-12-17T04:50:35.967Z,30.08
2018-12-17T04:51:15.623Z,30.06
2018-12-17T04:51:53.290Z,30.02
2018-12-17T04:52:31.715Z,30.04
2018-12-17T04:53:09.453Z,30.02
2018-12-17T04:53:46.792Z,30.02
2018-12-17T04:54:28.127Z,30.03
2018-12-17T04:55:06.619Z,29.97
2018-12-17T04:55:44.112Z,30.02
2018-12-17T04:56:21.590Z,30.02
2018-12-17T04:56:59.248Z,30.03
2018-12-17T04:57:36.695Z,30.04
2018-12-17T04:58:18.472Z,30.04
2018-12-17T04:58:56.133Z,30.06
2018-12-17T04:59:33.490Z,30.07
2018-12-17T05:00:12.426Z,30.10
2018-12-17T05:00:50.017Z,30.10
2018-12-17T05:01:29.525Z,30.13
2018-12-17T05:02:09.793Z,30.14
2018-12-17T05:02:47.441Z,30.16
2018-12-17T05:03:24.538Z,30.17
2018-12-17T05:04:05.059Z,30.18
2018-12-17T05:04:42.429Z,30.18
2018-12-17T05:05:19.994Z,30.20
2018-12-17T05:05:57.216Z,30.20
2018-12-17T05:06:34.707Z,30.14
2018-12-17T05:07:12.397Z,30.23
2018-12-17T05:07:49.954Z,30.20
2018-12-17T05:08:31.743Z,30.26
2018-12-17T05:09:10.913Z,30.17
2018-12-17T05:09:48.303Z,30.20
2018-12-17T05:10:25.821Z,30.25
2018-12-17T05:11:03.545Z,30.21
2018-12-17T05:11:43.554Z,30.21
2018-12-17T05:12:22.897Z,30.19
2018-12-17T05:13:00.057Z,30.19
2018-12-17T05:13:38.708Z,30.20
2018-12-17T05:14:20.978Z,30.17
2018-12-17T05:14:58.630Z,30.16
2018-12-17T05:15:36.001Z,30.16
2018-12-17T05:16:14.888Z,30.16
2018-12-17T05:16:52.371Z,30.16
2018-12-17T05:17:29.558Z,30.12
2018-12-17T05:18:08.270Z,30.16
2018-12-17T05:18:46.619Z,30.18
2018-12-17T05:19:23.699Z,30.12
2018-12-17T05:20:01.832Z,30.18
2018-12-17T05:20:39.421Z,30.17
2018-12-17T05:21:16.847Z,30.18
2018-12-17T05:21:54.631Z,30.17
2018-12-17T05:22:34.811Z,30.18
2018-12-17T05:23:12.300Z,30.20
2018-12-17T05:23:49.686Z,30.21
2018-12-17T05:24:29.326Z,30.22
2018-12-17T05:25:07.058Z,30.23
2018-12-17T05:25:44.377Z,30.22
2018-12-17T05:26:23.560Z,30.23
2018-12-17T05:27:01.421Z,30.23
2018-12-17T05:27:38.868Z,30.23
2018-12-17T05:28:18.403Z,30.22
2018-12-17T05:28:55.873Z,30.19
2018-12-17T05:29:33.372Z,30.20
2018-12-17T05:30:11.674Z,30.18
2018-12-17T05:30:49.310Z,30.11
2018-12-17T05:31:26.735Z,30.11
2018-12-17T05:32:04.008Z,30.13
2018-12-17T05:32:41.329Z,30.07
2018-12-17T05:33:18.595Z,30.08
2018-12-17T05:33:58.582Z,30.11
2018-12-17T05:34:36.075Z,30.12
2018-12-17T05:35:14.444Z,30.12
2018-12-17T05:35:52.007Z,30.10
2018-12-17T05:36:29.910Z,30.10
2018-12-17T05:37:07.646Z,30.13
2018-12-17T05:37:52.719Z,30.14
2018-12-17T05:38:29.843Z,30.11
2018-12-17T05:39:08.601Z,30.15
2018-12-17T05:39:50.791Z,30.14
2018-12-17T05:40:28.320Z,30.16
2018-12-17T05:41:05.253Z,30.14
2018-12-17T05:41:44.777Z,30.14
2018-12-17T05:42:22.238Z,30.07
2018-12-17T05:43:00.587Z,30.09
2018-12-17T05:43:38.582Z,30.10
2018-12-17T05:44:16.002Z,30.08
2018-12-17T05:44:53.457Z,30.06
2018-12-17T05:45:36.986Z,30.05
2018-12-17T05:46:15.518Z,30.07
2018-12-17T05:46:53.477Z,30.06
2018-12-17T05:47:32.114Z,30.03
2018-12-17T05:48:14.474Z,30.08
2018-12-17T05:48:52.122Z,30.06
2018-12-17T05:49:34.172Z,30.01
2018-12-17T05:50:11.688Z,30.04
2018-12-17T05:50:49.131Z,30.04
2018-12-17T05:51:27.987Z,30.02
2018-12-17T05:52:05.377Z,30.01
2018-12-17T05:52:43.670Z,30.01
2018-12-17T05:53:21.474Z,30.02
2018-12-17T05:53:59.702Z,30.00
2018-12-17T05:54:37.142Z,29.99
2018-12-17T05:55:18.221Z,30.01
2018-12-17T05:55:56.462Z,30.00
2018-12-17T05:56:40.065Z,30.01
2018-12-17T05:57:18.980Z,30.00
2018-12-17T05:58:00.829Z,30.01
2018-12-17T05:58:38.271Z,30.01
2018-12-17T05:59:15.870Z,30.02
2018-12-17T05:59:55.558Z,30.02
2018-12-17T06:00:33.666Z,30.02
2018-12-17T06:01:11.368Z,30.02
2018-12-17T06:01:49.390Z,30.03
2018-12-17T06:02:26.867Z,30.03
2018-12-17T06:03:04.521Z,30.03
2018-12-17T06:03:46.682Z,30.03
2018-12-17T06:04:24.477Z,30.03
2018-12-17T06:05:02.012Z,30.03
2018-12-17T06:05:44.037Z,30.04
2018-12-17T06:06:23.726Z,30.03
2018-12-17T06:07:02.534Z,29.99
2018-12-17T06:07:40.213Z,30.03
2018-12-17T06:08:19.913Z,29.98
2018-12-17T06:08:57.480Z,30.03
2018-12-17T06:09:35.163Z,30.04
2018-12-17T06:10:13.368Z,30.02
2018-12-17T06:10:52.250Z,30.03
2018-12-17T06:11:31.640Z,30.04
2018-12-17T06:12:09.246Z,30.01
2018-12-17T06:12:46.702Z,30.03
2018-12-17T06:13:24.010Z,30.00
2018-12-17T06:14:01.361Z,30.02
2018-12-17T06:14:38.940Z,30.04
2018-12-17T06:15:16.549Z,30.02
2018-12-17T06:15:55.138Z,30.06
2018-12-17T06:16:32.691Z,30.07
2018-12-17T06:17:10.400Z,30.02
2018-12-17T06:17:49.910Z,30.08
2018-12-17T06:18:33.907Z,30.08
2018-12-17T06:19:11.382Z,30.08
2018-12-17T06:19:52.845Z,30.09
2018-12-17T06:20:31.056Z,30.07
2018-12-17T06:21:08.947Z,30.06
2018-12-17T06:21:46.460Z,30.10
2018-12-17T06:22:25.104Z,30.10
2018-12-17T06:23:02.816Z,30.11
2018-12-17T06:23:40.734Z,30.13
2018-12-17T06:24:18.120Z,30.14
2018-12-17T06:24:57.174Z,30.16
2018-12-17T06:25:35.020Z,30.16
2018-12-17T06:26:12.442Z,30.14
2018-12-17T06:26:53.090Z,30.16
2018-12-17T06:27:36.606Z,30.15
2018-12-17T06:28:10.673Z,30.15
2018-12-17T06:28:48.463Z,30.13
2018-12-17T06:29:25.855Z,30.14
2018-12-17T06:30:03.209Z,30.13
2018-12-17T06:30:41.762Z,30.10
2018-12-17T06:31:19.251Z,30.14
2018-12-17T06:32:06.895Z,30.14
2018-12-17T06:32:47.811Z,30.12
2018-12-17T06:33:25.507Z,30.13
2018-12-17T06:34:03.810Z,30.07
2018-12-17T06:34:42.866Z,30.10
2018-12-17T06:35:20.201Z,30.09
2018-12-17T06:35:58.065Z,30.07
2018-12-17T06:36:35.290Z,30.07
2018-12-17T06:37:12.994Z,30.08
2018-12-17T06:37:50.763Z,30.06
2018-12-17T06:38:28.205Z,30.04
2018-12-17T06:39:06.834Z,30.06
2018-12-17T06:39:44.070Z,30.03
2018-12-17T06:40:21.645Z,30.02
2018-12-17T06:41:01.251Z,30.03
2018-12-17T06:41:39.003Z,29.97
2018-12-17T06:42:16.334Z,29.95
2018-12-17T06:42:53.943Z,29.99
2018-12-17T06:43:32.397Z,29.99
2018-12-17T06:44:11.261Z,30.02
2018-12-17T06:44:54.707Z,30.02
2018-12-17T06:45:32.153Z,30.00
2018-12-17T06:46:09.624Z,30.01
2018-12-17T06:46:50.409Z,30.00
2018-12-17T06:47:27.873Z,30.01
2018-12-17T06:48:05.062Z,30.01
2018-12-17T06:48:42.783Z,30.02
2018-12-17T06:49:23.830Z,30.03
2018-12-17T06:50:01.399Z,30.02
2018-12-17T06:50:38.791Z,30.04
2018-12-17T06:51:15.862Z,30.04
2018-12-17T06:51:54.549Z,30.06
2018-12-17T06:52:35.466Z,30.07
2018-12-17T06:53:12.828Z,30.07
2018-12-17T06:53:50.359Z,30.09
2018-12-17T06:54:30.476Z,30.09
2018-12-17T06:55:08.211Z,30.11
2018-12-17T06:55:45.584Z,30.13
2018-12-17T06:56:24.611Z,30.17
2018-12-17T06:57:01.804Z,30.20
2018-12-17T06:57:40.184Z,30.22
2018-12-17T06:58:17.943Z,30.20
2018-12-17T06:58:55.229Z,30.23
2018-12-17T06:59:33.714Z,30.20
2018-12-17T07:00:11.606Z,30.23
2018-12-17T07:00:49.292Z,30.24
2018-12-17T07:01:28.104Z,30.27
2018-12-17T07:02:08.081Z,30.26
2018-12-17T07:02:45.561Z,30.27
2018-12-17T07:03:23.343Z,30.28
2018-12-17T07:04:01.091Z,30.30
2018-12-17T07:04:38.853Z,30.27
2018-12-17T07:05:16.491Z,30.31
2018-12-17T07:05:54.165Z,30.33
2018-12-17T07:06:31.593Z,30.34
2018-12-17T07:07:10.021Z,30.31
2018-12-17T07:07:47.320Z,30.39
2018-12-17T07:08:30.240Z,30.34
2018-12-17T07:09:08.830Z,30.40
2018-12-17T07:09:46.444Z,30.42
2018-12-17T07:10:24.960Z,30.39
2018-12-17T07:11:03.210Z,30.43
2018-12-17T07:11:41.653Z,30.45
2018-12-17T07:12:19.300Z,30.45
2018-12-17T07:12:57.530Z,30.48
2018-12-17T07:13:34.909Z,30.44
2018-12-17T07:14:12.469Z,30.48
2018-12-17T07:14:50.751Z,30.51
2018-12-17T07:15:28.486Z,30.53
2018-12-17T07:16:05.889Z,30.52
2018-12-17T07:16:43.212Z,30.52
2018-12-17T07:17:20.815Z,30.49
2018-12-17T07:17:59.357Z,30.51
2018-12-17T07:18:36.276Z,30.50
2018-12-17T07:19:13.443Z,30.51
2018-12-17T07:19:51.580Z,30.48
2018-12-17T07:20:28.769Z,30.51
2018-12-17T07:21:06.281Z,30.52
2018-12-17T07:21:53.361Z,30.51
2018-12-17T07:22:34.248Z,30.52
2018-12-17T07:23:11.792Z,30.54
2018-12-17T07:23:49.191Z,30.52
2018-12-17T07:24:29.482Z,30.54
2018-12-17T07:25:06.987Z,30.54
2018-12-17T07:25:44.438Z,30.52
2018-12-17T07:26:24.633Z,30.57
2018-12-17T07:27:02.043Z,30.59
2018-12-17T07:27:39.786Z,30.61
2018-12-17T07:28:21.614Z,30.63
2018-12-17T07:28:59.610Z,30.65
2018-12-17T07:29:36.892Z,30.64
2018-12-17T07:30:13.891Z,30.66
2018-12-17T07:30:51.351Z,30.67
2018-12-17T07:31:28.815Z,30.67
2018-12-17T07:32:05.775Z,30.66
2018-12-17T07:32:43.049Z,30.65
2018-12-17T07:33:20.432Z,30.65
2018-12-17T07:33:57.558Z,30.65
2018-12-17T07:34:34.983Z,30.62
2018-12-17T07:35:12.204Z,30.65
2018-12-17T07:35:50.530Z,30.68
2018-12-17T07:36:28.544Z,30.68
2018-12-17T07:37:05.809Z,30.65
2018-12-17T07:37:43.055Z,30.64
2018-12-17T07:38:20.166Z,30.64
2018-12-17T07:39:00.766Z,30.65
2018-12-17T07:39:46.717Z,30.66
2018-12-17T07:40:29.454Z,30.65
2018-12-17T07:41:07.150Z,30.67
2018-12-17T07:41:46.132Z,30.66
2018-12-17T07:42:24.853Z,30.68
2018-12-17T07:43:02.222Z,30.66
2018-12-17T07:43:45.624Z,30.65
2018-12-17T07:44:28.448Z,30.63
2018-12-17T07:45:05.991Z,30.65
2018-12-17T07:45:43.634Z,30.66
2018-12-17T07:46:32.705Z,30.64
2018-12-17T07:47:20.492Z,30.65
2018-12-17T07:48:05.740Z,30.64
2018-12-17T07:48:43.359Z,30.66
2018-12-17T07:49:20.453Z,30.65
2018-12-17T07:49:57.814Z,30.67
2018-12-17T07:50:35.391Z,30.66
2018-12-17T07:51:12.739Z,30.67
2018-12-17T07:51:51.080Z,30.68
2018-12-17T07:52:29.838Z,30.68
2018-12-17T07:53:07.377Z,30.69
2018-12-17T07:53:47.716Z,30.70
2018-12-17T07:54:30.091Z,30.70
2018-12-17T07:55:12.313Z,30.72
2018-12-17T07:56:00.748Z,30.72
2018-12-17T07:56:38.579Z,30.72
2018-12-17T07:57:17.044Z,30.72
2018-12-17T07:57:54.994Z,30.75
2018-12-17T07:58:33.261Z,30.73
2018-12-17T07:59:11.306Z,30.75
2018-12-17T07:59:56.920Z,30.75
2018-12-17T08:00:39.107Z,30.75
2018-12-17T08:01:18.738Z,30.74
2018-12-17T08:01:56.114Z,30.75
2018-12-17T08:02:38.235Z,30.75
2018-12-17T08:03:15.645Z,30.75
2018-12-17T08:03:53.100Z,30.73
2018-12-17T08:04:31.659Z,30.72
2018-12-17T08:05:10.579Z,30.70
2018-12-17T08:05:48.295Z,30.71
2018-12-17T08:06:26.755Z,30.71
2018-12-17T08:07:06.617Z,30.69
2018-12-17T08:07:44.317Z,30.71
2018-12-17T08:08:21.816Z,30.71
2018-12-17T08:09:00.106Z,30.70
2018-12-17T08:09:37.868Z,30.69
2018-12-17T08:10:17.191Z,30.70
2018-12-17T08:10:54.495Z,30.67
2018-12-17T08:11:31.516Z,30.65
2018-12-17T08:12:09.056Z,30.64
2018-12-17T08:12:48.802Z,30.64
2018-12-17T08:13:26.885Z,30.63
2018-12-17T08:14:04.081Z,30.62
2018-12-17T08:14:41.986Z,30.62
2018-12-17T08:15:19.449Z,30.61
2018-12-17T08:16:02.436Z,30.60
2018-12-17T08:16:46.025Z,30.58
2018-12-17T08:17:25.917Z,30.58
2018-12-17T08:18:12.623Z,30.58
2018-12-17T08:18:50.351Z,30.56
2018-12-17T08:19:29.049Z,30.57
2018-12-17T08:20:07.033Z,30.55
2018-12-17T08:20:45.337Z,30.54
2018-12-17T08:21:22.856Z,30.54
2018-12-17T08:22:00.635Z,30.53